createdAt,value
2023-04-16T00:00:12.851Z,7.78
2023-04-16T00:02:45.124Z,5.05
2023-04-16T00:05:16.824Z,4.43
2023-04-16T00:07:49.136Z,4.63
2023-04-16T00:10:20.887Z,4.60
2023-04-16T00:12:52.512Z,2.60
2023-04-16T00:15:24.061Z,1.60
2023-04-16T00:17:55.912Z,1.45
2023-04-16T00:20:27.708Z,0.80
2023-04-16T00:22:59.552Z,0.50
2023-04-16T00:25:31.446Z,1.58
2023-04-16T00:28:03.226Z,1.65
2023-04-16T00:30:35.290Z,1.02
2023-04-16T00:33:07.026Z,2.33
2023-04-16T00:35:38.692Z,2.42
2023-04-16T00:38:10.220Z,3.30
2023-04-16T00:40:41.834Z,3.78
2023-04-16T00:43:23.146Z,1.73
2023-04-16T00:45:57.517Z,2.58
2023-04-16T00:48:31.739Z,2.50
2023-04-16T00:51:08.213Z,3.65
2023-04-16T00:53:39.859Z,4.10
2023-04-16T00:56:12.433Z,5.57
2023-04-16T00:58:44.225Z,4.97
2023-04-16T01:01:16.334Z,4.43
2023-04-16T01:03:49.577Z,2.60
2023-04-16T01:06:22.182Z,4.32
2023-04-16T01:08:54.344Z,2.03
2023-04-16T01:11:26.467Z,4.30
2023-04-16T01:13:58.057Z,3.83
2023-04-16T01:16:30.567Z,4.13
2023-04-16T01:19:02.920Z,4.18
2023-04-16T01:21:34.653Z,3.47
2023-04-16T01:24:06.648Z,5.00
2023-04-16T01:26:38.318Z,4.90
2023-04-16T01:29:10.904Z,6.65
2023-04-16T01:31:43.664Z,6.43
2023-04-16T01:34:15.395Z,8.68
2023-04-16T01:36:46.892Z,8.23
2023-04-16T01:39:19.507Z,9.77
2023-04-16T01:41:52.266Z,10.32
2023-04-16T01:44:23.903Z,8.35
2023-04-16T01:46:55.520Z,9.13
2023-04-16T01:49:27.831Z,8.40
2023-04-16T01:52:00.853Z,5.07
2023-04-16T01:54:32.800Z,6.07
2023-04-16T01:57:04.404Z,3.83
2023-04-16T01:59:35.959Z,2.83
2023-04-16T02:02:11.464Z,3.53
2023-04-16T02:04:45.979Z,2.38
2023-04-16T02:07:17.579Z,1.95
2023-04-16T02:09:51.922Z,1.60
2023-04-16T02:12:23.921Z,1.60
2023-04-16T02:14:55.599Z,2.22
2023-04-16T02:17:27.434Z,1.63
2023-04-16T02:20:00.182Z,0.75
2023-04-16T02:22:32.563Z,2.08
2023-04-16T02:25:05.139Z,1.30
2023-04-16T02:27:36.723Z,1.90
2023-04-16T02:30:09.231Z,4.63
2023-04-16T02:32:41.002Z,3.20
2023-04-16T02:35:12.750Z,4.57
2023-04-16T02:37:44.401Z,5.05
2023-04-16T02:40:16.232Z,5.22
2023-04-16T02:42:47.816Z,5.05
2023-04-16T02:45:20.891Z,3.97
2023-04-16T02:47:52.651Z,2.33
2023-04-16T02:50:24.228Z,3.03
2023-04-16T02:52:56.524Z,1.10
2023-04-16T02:55:29.539Z,1.55
2023-04-16T02:58:01.614Z,3.15
2023-04-16T03:00:33.151Z,1.63
2023-04-16T03:03:04.793Z,2.42
2023-04-16T03:05:38.020Z,3.20
2023-04-16T03:08:10.835Z,3.88
2023-04-16T03:10:43.386Z,4.20
2023-04-16T03:13:15.316Z,5.55
2023-04-16T03:15:50.478Z,5.20
2023-04-16T03:18:22.099Z,5.50
2023-04-16T03:20:54.252Z,5.45
2023-04-16T03:23:26.363Z,5.45
2023-04-16T03:25:57.957Z,5.60
2023-04-16T03:28:29.617Z,6.40
2023-04-16T03:31:01.411Z,5.47
2023-04-16T03:33:33.085Z,5.22
2023-04-16T03:36:05.005Z,6.00
2023-04-16T03:38:36.653Z,7.47
2023-04-16T03:41:08.219Z,7.32
2023-04-16T03:43:40.057Z,6.63
2023-04-16T03:46:11.790Z,6.30
2023-04-16T03:48:43.420Z,6.28
2023-04-16T03:51:15.457Z,6.25
2023-04-16T03:53:47.054Z,7.97
2023-04-16T03:56:18.600Z,7.80
2023-04-16T03:58:50.316Z,7.65
2023-04-16T04:01:21.915Z,8.07
2023-04-16T04:03:53.861Z,9.27
2023-04-16T04:06:25.479Z,8.90
2023-04-16T04:08:57.436Z,7.80
2023-04-16T04:11:30.997Z,8.93
2023-04-16T04:14:02.666Z,7.30
2023-04-16T04:16:35.358Z,6.80
2023-04-16T04:19:07.092Z,6.75
2023-04-16T04:21:38.948Z,7.45
2023-04-16T04:24:10.664Z,5.95
2023-04-16T04:26:42.508Z,6.18
2023-04-16T04:29:14.062Z,6.63
2023-04-16T04:31:46.195Z,7.00
2023-04-16T04:34:18.342Z,5.13
2023-04-16T04:36:50.141Z,6.30
2023-04-16T04:39:22.630Z,6.22
2023-04-16T04:41:54.391Z,7.03
2023-04-16T04:44:26.565Z,8.10
2023-04-16T04:46:58.341Z,7.97
2023-04-16T04:49:30.961Z,7.57
2023-04-16T04:52:02.775Z,7.07
2023-04-16T04:54:34.628Z,7.47
2023-04-16T04:57:06.336Z,5.78
2023-04-16T04:59:38.049Z,6.97
2023-04-16T05:02:10.529Z,4.60
2023-04-16T05:04:42.346Z,7.60
2023-04-16T05:07:14.365Z,6.43
2023-04-16T05:09:45.971Z,8.35
2023-04-16T05:12:17.785Z,7.45
2023-04-16T05:14:53.401Z,6.07
2023-04-16T05:17:27.527Z,3.45
2023-04-16T05:20:02.913Z,5.07
2023-04-16T05:22:35.173Z,5.13
2023-04-16T05:25:07.365Z,7.07
2023-04-16T05:27:39.073Z,6.00
2023-04-16T05:30:11.335Z,7.18
2023-04-16T05:32:43.007Z,4.28
2023-04-16T05:35:17.206Z,3.70
2023-04-16T05:37:49.187Z,4.70
2023-04-16T05:40:21.110Z,2.10
2023-04-16T05:42:52.853Z,2.53
2023-04-16T05:45:26.731Z,1.63
2023-04-16T05:47:59.574Z,1.08
2023-04-16T05:50:31.350Z,2.42
2023-04-16T05:53:08.070Z,2.42
2023-04-16T05:55:39.790Z,0.93
2023-04-16T05:58:11.348Z,2.42
2023-04-16T06:00:43.062Z,1.25
2023-04-16T06:03:14.967Z,1.17
2023-04-16T06:05:46.826Z,0.68
2023-04-16T06:08:18.649Z,1.70
2023-04-16T06:10:51.247Z,0.65
2023-04-16T06:13:22.810Z,1.02
2023-04-16T06:15:54.670Z,2.53
2023-04-16T06:18:28.239Z,0.70
2023-04-16T06:21:00.475Z,0.90
2023-04-16T06:23:34.217Z,1.05
2023-04-16T06:26:06.385Z,1.02
2023-04-16T06:28:38.688Z,1.40
2023-04-16T06:31:11.222Z,1.80
2023-04-16T06:33:44.485Z,1.30
2023-04-16T06:36:19.242Z,0.93
2023-04-16T06:38:50.955Z,0.85
2023-04-16T06:41:25.507Z,0.82
2023-04-16T06:43:57.137Z,1.02
2023-04-16T06:46:29.441Z,0.45
2023-04-16T06:49:01.335Z,1.20
2023-04-16T06:51:34.055Z,2.67
2023-04-16T06:54:06.231Z,1.73
2023-04-16T06:56:38.159Z,3.10
2023-04-16T06:59:11.221Z,2.30
2023-04-16T07:01:43.056Z,1.48
2023-04-16T07:04:16.345Z,1.30
2023-04-16T07:06:48.298Z,1.77
2023-04-16T07:09:20.187Z,2.10
2023-04-16T07:11:52.086Z,2.58
2023-04-16T07:14:23.954Z,1.70
2023-04-16T07:16:55.914Z,1.70
2023-04-16T07:19:31.956Z,3.80
2023-04-16T07:22:04.210Z,4.85
2023-04-16T07:24:36.643Z,2.53
2023-04-16T07:27:08.132Z,3.00
2023-04-16T07:29:39.900Z,4.85
2023-04-16T07:32:15.133Z,3.20
2023-04-16T07:34:48.250Z,3.28
2023-04-16T07:37:19.934Z,2.70
2023-04-16T07:39:53.115Z,4.32
2023-04-16T07:42:24.939Z,1.40
2023-04-16T07:44:57.058Z,2.67
2023-04-16T07:47:28.784Z,5.35
2023-04-16T07:50:00.698Z,5.10
2023-04-16T07:52:32.863Z,3.33
2023-04-16T07:55:05.698Z,5.03
2023-04-16T07:57:37.494Z,5.68
2023-04-16T08:00:10.360Z,6.47
2023-04-16T08:02:43.867Z,3.80
2023-04-16T08:05:15.866Z,4.10
2023-04-16T08:07:47.867Z,4.38
2023-04-16T08:10:19.945Z,2.72
2023-04-16T08:12:51.868Z,1.60
2023-04-16T08:15:23.668Z,3.15
2023-04-16T08:17:55.592Z,1.92
2023-04-16T08:20:27.598Z,2.63
2023-04-16T08:22:59.703Z,1.50
2023-04-16T08:25:31.994Z,2.03
2023-04-16T08:28:03.806Z,1.63
2023-04-16T08:30:35.743Z,2.25
2023-04-16T08:33:07.478Z,2.95
2023-04-16T08:35:39.487Z,3.08
2023-04-16T08:38:11.310Z,2.90
2023-04-16T08:40:43.813Z,3.22
2023-04-16T08:43:18.169Z,1.23
2023-04-16T08:45:51.545Z,1.67
2023-04-16T08:48:24.034Z,1.88
2023-04-16T08:50:56.491Z,3.08
2023-04-16T08:53:53.557Z,2.03
2023-04-16T08:56:26.557Z,1.67
2023-04-16T08:59:05.153Z,1.05
2023-04-16T09:01:39.079Z,1.77
2023-04-16T09:04:11.461Z,1.60
2023-04-16T09:06:44.331Z,0.82
2023-04-16T09:09:17.871Z,1.70
2023-04-16T09:11:54.051Z,0.68
2023-04-16T09:14:26.187Z,0.57
2023-04-16T09:17:01.174Z,1.60
2023-04-16T09:19:32.834Z,1.50
2023-04-16T09:22:04.463Z,2.22
2023-04-16T09:24:38.414Z,1.83
2023-04-16T09:27:14.339Z,2.50
2023-04-16T09:29:46.268Z,1.88
2023-04-16T09:32:24.526Z,1.40
2023-04-16T09:35:01.756Z,1.27
2023-04-16T09:37:33.792Z,1.63
2023-04-16T09:40:06.657Z,2.97
2023-04-16T09:42:38.581Z,3.20
2023-04-16T09:45:11.220Z,3.05
2023-04-16T09:47:45.903Z,2.97
2023-04-16T09:50:20.316Z,2.05
2023-04-16T09:52:52.314Z,2.30
2023-04-16T09:55:27.738Z,1.02
2023-04-16T09:58:01.301Z,3.40
2023-04-16T10:00:43.260Z,1.40
2023-04-16T10:03:15.818Z,1.95
2023-04-16T10:05:47.758Z,0.65
2023-04-16T10:08:19.366Z,0.40
2023-04-16T10:10:51.346Z,0.05
2023-04-16T10:13:23.142Z,0.25
2023-04-16T10:15:57.982Z,0.57
2023-04-16T10:18:29.490Z,0.30
2023-04-16T10:21:01.510Z,0.30
2023-04-16T10:23:34.027Z,1.15
2023-04-16T10:26:06.456Z,1.25
2023-04-16T10:28:37.980Z,0.47
2023-04-16T10:31:09.801Z,0.30
2023-04-16T10:33:42.169Z,0.10
2023-04-16T10:36:23.843Z,0.20
2023-04-16T10:38:59.887Z,1.20
2023-04-16T10:41:33.555Z,1.83
2023-04-16T10:44:10.324Z,0.30
2023-04-16T10:46:43.948Z,0.68
2023-04-16T10:49:35.504Z,0.15
2023-04-16T10:52:13.550Z,0.00
2023-04-16T10:54:47.917Z,0.30
2023-04-16T10:57:20.545Z,0.32
2023-04-16T10:59:54.861Z,0.20
2023-04-16T11:02:29.198Z,0.65
2023-04-16T11:05:01.956Z,0.40
2023-04-16T11:07:35.115Z,0.28
2023-04-16T11:10:12.644Z,0.55
2023-04-16T11:12:47.658Z,0.20
2023-04-16T11:15:19.582Z,0.80
2023-04-16T11:17:52.714Z,0.50
2023-04-16T11:20:26.546Z,0.40
2023-04-16T11:22:58.397Z,0.35
2023-04-16T11:25:31.584Z,0.70
2023-04-16T11:28:03.213Z,0.75
2023-04-16T11:30:40.490Z,0.95
2023-04-16T11:33:12.388Z,0.82
2023-04-16T11:35:48.154Z,0.80
2023-04-16T11:38:19.652Z,1.05
2023-04-16T11:40:54.137Z,0.55
2023-04-16T11:43:26.801Z,1.33
2023-04-16T11:46:12.937Z,1.17
2023-04-16T11:48:58.687Z,1.50
2023-04-16T11:51:30.303Z,2.25
2023-04-16T11:54:02.156Z,2.40
2023-04-16T11:56:36.271Z,1.90
2023-04-16T11:59:09.251Z,2.92
2023-04-16T12:01:45.697Z,2.20
2023-04-16T12:04:21.323Z,1.73
2023-04-16T12:07:10.972Z,3.13
2023-04-16T12:09:44.011Z,2.10
2023-04-16T12:12:32.525Z,3.47
2023-04-16T12:15:05.136Z,3.15
2023-04-16T12:17:38.565Z,2.97
2023-04-16T12:20:15.726Z,3.78
2023-04-16T12:22:49.623Z,3.05
2023-04-16T12:25:24.700Z,2.92
2023-04-16T12:27:56.327Z,3.03
2023-04-16T12:30:28.035Z,1.90
2023-04-16T12:33:17.593Z,3.20
2023-04-16T12:35:49.723Z,3.05
2023-04-16T12:38:24.074Z,3.05
2023-04-16T12:40:57.917Z,3.70
2023-04-16T12:43:31.391Z,4.00
2023-04-16T12:46:04.306Z,2.75
2023-04-16T12:48:36.266Z,2.67
2023-04-16T12:51:08.525Z,3.88
2023-04-16T12:53:40.534Z,4.47
2023-04-16T12:56:23.835Z,3.03
2023-04-16T12:58:56.150Z,2.72
2023-04-16T13:01:28.354Z,1.83
2023-04-16T13:04:00.017Z,1.90
2023-04-16T13:06:36.810Z,4.10
2023-04-16T13:09:08.392Z,2.70
2023-04-16T13:11:40.050Z,2.50
2023-04-16T13:14:11.746Z,3.03
2023-04-16T13:16:43.259Z,3.63
2023-04-16T13:19:15.900Z,2.88
2023-04-16T13:21:47.565Z,2.65
2023-04-16T13:24:21.731Z,4.45
2023-04-16T13:26:53.789Z,4.28
2023-04-16T13:29:25.334Z,3.75
2023-04-16T13:31:57.468Z,3.70
2023-04-16T13:34:29.131Z,3.00
2023-04-16T13:37:00.856Z,4.28
2023-04-16T13:39:32.336Z,3.92
2023-04-16T13:42:04.038Z,3.70
2023-04-16T13:44:35.661Z,4.13
2023-04-16T13:47:07.260Z,6.18
2023-04-16T13:49:38.884Z,3.70
2023-04-16T13:52:10.612Z,4.93
2023-04-16T13:54:42.655Z,3.80
2023-04-16T13:57:14.146Z,2.78
2023-04-16T13:59:46.204Z,3.83
2023-04-16T14:02:18.009Z,5.32
2023-04-16T14:04:49.598Z,4.38
2023-04-16T14:07:22.553Z,4.30
2023-04-16T14:09:54.227Z,3.13
2023-04-16T14:12:25.795Z,3.78
2023-04-16T14:14:57.479Z,4.15
2023-04-16T14:17:28.989Z,4.45
2023-04-16T14:20:05.049Z,4.10
2023-04-16T14:22:36.577Z,5.50
2023-04-16T14:25:08.593Z,4.63
2023-04-16T14:27:41.245Z,6.88
2023-04-16T14:30:13.147Z,6.05
2023-04-16T14:32:44.786Z,7.03
2023-04-16T14:35:20.876Z,7.65
2023-04-16T14:37:56.240Z,9.82
2023-04-16T14:40:27.977Z,8.93
2023-04-16T14:42:59.538Z,8.68
2023-04-16T14:45:32.348Z,8.85
2023-04-16T14:48:04.436Z,9.50
2023-04-16T14:50:38.031Z,11.10
2023-04-16T14:53:11.950Z,11.15
2023-04-16T14:55:44.051Z,8.73
2023-04-16T14:58:15.590Z,11.07
2023-04-16T15:00:47.160Z,9.60
2023-04-16T15:03:18.991Z,11.80
2023-04-16T15:05:55.623Z,10.32
2023-04-16T15:08:27.659Z,10.52
2023-04-16T15:10:59.801Z,10.75
2023-04-16T15:13:34.168Z,8.93
2023-04-16T15:16:05.874Z,8.90
2023-04-16T15:18:37.494Z,10.15
2023-04-16T15:21:11.152Z,7.40
2023-04-16T15:23:43.865Z,11.80
2023-04-16T15:26:15.545Z,8.45
2023-04-16T15:28:47.039Z,10.80
2023-04-16T15:31:20.781Z,8.32
2023-04-16T15:33:53.762Z,8.52
2023-04-16T15:36:26.847Z,10.10
2023-04-16T15:38:58.340Z,11.00
2023-04-16T15:41:31.837Z,10.88
2023-04-16T15:44:03.594Z,12.23
2023-04-16T15:46:35.396Z,11.57
2023-04-16T15:49:06.958Z,9.00
2023-04-16T15:51:38.537Z,11.25
2023-04-16T15:54:10.087Z,12.43
2023-04-16T15:56:41.717Z,2.70
2023-04-16T15:59:13.621Z,3.20
2023-04-16T16:01:45.909Z,0.85
2023-04-16T16:04:17.654Z,1.23
2023-04-16T16:06:50.309Z,1.35
2023-04-16T16:09:26.216Z,3.53
2023-04-16T16:11:58.861Z,1.45
2023-04-16T16:14:30.595Z,0.70
2023-04-16T16:17:02.136Z,1.27
2023-04-16T16:19:33.635Z,1.83
2023-04-16T16:22:05.153Z,1.70
2023-04-16T16:24:36.744Z,1.25
2023-04-16T16:27:10.735Z,1.13
2023-04-16T16:29:44.335Z,1.50
2023-04-16T16:32:16.690Z,0.98
2023-04-16T16:34:48.647Z,1.10
2023-04-16T16:37:20.290Z,1.58
2023-04-16T16:39:51.779Z,1.08
2023-04-16T16:42:23.686Z,1.23
2023-04-16T16:44:57.325Z,1.52
2023-04-16T16:47:29.229Z,1.35
2023-04-16T16:50:02.983Z,0.55
2023-04-16T16:52:34.868Z,1.13
2023-04-16T16:55:10.801Z,1.42
2023-04-16T16:57:42.422Z,2.22
2023-04-16T17:00:16.189Z,2.03
2023-04-16T17:02:51.118Z,2.35
2023-04-16T17:05:23.904Z,2.90
2023-04-16T17:07:55.576Z,2.25
2023-04-16T17:10:27.732Z,3.60
2023-04-16T17:12:59.273Z,3.30
2023-04-16T17:15:31.002Z,1.85
2023-04-16T17:18:02.559Z,3.20
2023-04-16T17:20:34.193Z,4.00
2023-04-16T17:23:06.101Z,3.58
2023-04-16T17:25:37.655Z,7.75
2023-04-16T17:28:09.236Z,5.05
2023-04-16T17:30:40.937Z,3.92
2023-04-16T17:33:12.537Z,7.55
2023-04-16T17:35:44.160Z,7.47
2023-04-16T17:38:15.900Z,10.63
2023-04-16T17:40:47.477Z,9.30
2023-04-16T17:43:19.092Z,7.50
2023-04-16T17:45:50.961Z,13.35
2023-04-16T17:48:22.546Z,15.10
2023-04-16T17:50:57.085Z,15.27
2023-04-16T17:53:28.609Z,12.07
2023-04-16T17:56:00.204Z,15.43
2023-04-16T17:58:34.919Z,19.48
2023-04-16T18:01:06.655Z,21.30
2023-04-16T18:03:39.824Z,18.33
2023-04-16T18:06:11.575Z,21.13
2023-04-16T18:08:43.148Z,22.02
2023-04-16T18:11:15.266Z,29.17
2023-04-16T18:13:46.992Z,23.35
2023-04-16T18:16:18.657Z,20.17
2023-04-16T18:18:50.380Z,20.58
2023-04-16T18:21:22.036Z,17.60
2023-04-16T18:23:53.971Z,19.20
2023-04-16T18:26:29.940Z,19.02
2023-04-16T18:29:01.955Z,19.85
2023-04-16T18:31:33.613Z,21.17
2023-04-16T18:34:05.646Z,14.48
2023-04-16T18:36:39.635Z,16.42
2023-04-16T18:39:11.184Z,17.95
2023-04-16T18:41:43.556Z,18.95
2023-04-16T18:44:17.313Z,16.65
2023-04-16T18:46:48.914Z,15.48
2023-04-16T18:49:20.650Z,17.92
2023-04-16T18:51:55.648Z,21.63
2023-04-16T18:54:27.969Z,15.10
2023-04-16T18:57:00.785Z,14.10
2023-04-16T18:59:32.647Z,13.27
2023-04-16T19:02:04.333Z,15.50
2023-04-16T19:04:36.182Z,17.77
2023-04-16T19:07:07.747Z,12.95
2023-04-16T19:09:39.262Z,16.15
2023-04-16T19:12:11.002Z,17.35
2023-04-16T19:14:42.471Z,15.95
2023-04-16T19:17:17.282Z,20.02
2023-04-16T19:19:48.966Z,17.92
2023-04-16T19:22:20.617Z,16.05
2023-04-16T19:24:52.193Z,14.77
2023-04-16T19:27:23.789Z,16.02
2023-04-16T19:29:55.337Z,16.27
2023-04-16T19:32:27.001Z,17.40
2023-04-16T19:34:58.506Z,16.00
2023-04-16T19:37:30.077Z,15.68
2023-04-16T19:40:02.049Z,17.48
2023-04-16T19:42:33.823Z,16.67
2023-04-16T19:45:06.454Z,15.32
2023-04-16T19:47:38.055Z,16.15
2023-04-16T19:50:10.543Z,17.00
2023-04-16T19:52:42.080Z,17.33
2023-04-16T19:55:13.753Z,18.65
2023-04-16T19:57:47.505Z,16.77
2023-04-16T20:00:20.833Z,16.95
2023-04-16T20:02:52.671Z,18.00
2023-04-16T20:05:26.470Z,16.55
2023-04-16T20:07:58.077Z,16.33
2023-04-16T20:10:31.475Z,15.65
2023-04-16T20:13:03.338Z,17.63
2023-04-16T20:15:35.002Z,13.57
2023-04-16T20:18:08.517Z,16.95
2023-04-16T20:20:40.041Z,12.55
2023-04-16T20:23:11.569Z,11.27
2023-04-16T20:25:43.656Z,14.73
2023-04-16T20:28:16.368Z,13.50
2023-04-16T20:30:47.989Z,16.80
2023-04-16T20:33:19.690Z,13.77
2023-04-16T20:35:52.219Z,15.57
2023-04-16T20:38:25.068Z,16.42
2023-04-16T20:41:10.039Z,14.50
2023-04-16T20:43:42.383Z,15.70
2023-04-16T20:49:01.468Z,16.88
2023-04-16T20:51:33.346Z,12.55
2023-04-16T20:54:04.872Z,14.32
2023-04-16T20:56:36.430Z,14.10
2023-04-16T20:59:13.274Z,20.13
2023-04-16T21:01:44.851Z,16.35
2023-04-16T21:04:16.706Z,16.65
2023-04-16T21:06:49.080Z,15.10
2023-04-16T21:09:21.156Z,16.75
2023-04-16T21:11:53.092Z,17.02
2023-04-16T21:14:24.703Z,15.98
2023-04-16T21:16:56.814Z,14.30
2023-04-16T21:19:28.298Z,15.82
2023-04-16T21:21:59.846Z,14.90
2023-04-16T21:24:34.421Z,15.13
2023-04-16T21:27:06.164Z,15.88
2023-04-16T21:29:37.649Z,18.08
2023-04-16T21:32:20.434Z,17.65
2023-04-16T21:34:51.979Z,17.58
2023-04-16T21:37:23.503Z,17.05
2023-04-16T21:39:55.011Z,14.57
2023-04-16T21:42:26.943Z,17.45
2023-04-16T21:44:58.625Z,20.13
2023-04-16T21:47:30.196Z,18.30
2023-04-16T21:50:01.779Z,18.98
2023-04-16T21:52:33.430Z,18.25
2023-04-16T21:55:09.526Z,17.88
2023-04-16T21:57:41.149Z,20.90
2023-04-16T22:00:14.228Z,19.17
2023-04-16T22:02:46.220Z,17.98
2023-04-16T22:05:19.875Z,20.20
2023-04-16T22:07:52.285Z,21.20
2023-04-16T22:10:23.821Z,19.45
2023-04-16T22:12:55.302Z,20.00
2023-04-16T22:15:26.860Z,21.63
2023-04-16T22:17:58.409Z,21.80
2023-04-16T22:20:30.763Z,20.75
2023-04-16T22:23:02.330Z,22.00
2023-04-16T22:25:33.922Z,21.25
2023-04-16T22:28:06.264Z,24.50
2023-04-16T22:30:38.052Z,20.17
2023-04-16T22:33:09.584Z,19.55
2023-04-16T22:35:41.379Z,19.80
2023-04-16T22:38:12.964Z,18.52
2023-04-16T22:40:48.745Z,16.65
2023-04-16T22:43:20.469Z,19.05
2023-04-16T22:46:04.373Z,16.75
2023-04-16T22:48:38.618Z,17.88
2023-04-16T22:51:10.365Z,14.40
2023-04-16T22:53:41.921Z,20.25
2023-04-16T22:56:13.398Z,20.20
2023-04-16T22:58:45.720Z,14.27
2023-04-16T23:01:20.467Z,15.15
2023-04-16T23:03:53.220Z,15.20
2023-04-16T23:06:24.802Z,14.80
2023-04-16T23:08:56.374Z,15.60
2023-04-16T23:11:27.899Z,16.75
2023-04-16T23:13:59.630Z,13.90
2023-04-16T23:16:31.209Z,15.00
2023-04-16T23:19:02.774Z,14.45
2023-04-16T23:21:34.294Z,12.70
2023-04-16T23:24:06.341Z,10.77
2023-04-16T23:26:37.938Z,13.75
2023-04-16T23:29:09.918Z,11.85
2023-04-16T23:31:41.586Z,10.45
2023-04-16T23:34:13.211Z,10.90
2023-04-16T23:36:44.744Z,12.00
2023-04-16T23:39:16.339Z,10.23
2023-04-16T23:41:47.895Z,11.23
2023-04-16T23:44:19.421Z,11.40
2023-04-16T23:46:51.023Z,8.40
2023-04-16T23:49:22.934Z,8.43
2023-04-16T23:51:54.518Z,10.52
2023-04-16T23:54:26.236Z,6.72
2023-04-16T23:56:57.716Z,8.27
2023-04-16T23:59:29.301Z,6.22
